Time;durP1;ratioP1;P1;durP2;ratioP2;P2;SDS_P1;SDS_P2;PMS_P1;PMS_P2;Temp;Humidity;BMP_temperature;BMP_pressure;BME280_temperature;BME280_humidity;BME280_pressure;Samples;Min_cycle;Max_cycle;Signal;HPM_P1;HPM_P2
2021/06/06 00:01:28;;;;;;;6.50;5.53;;;21.70;73.00;;;;;;5116434;28;20412;-54
2021/06/06 00:03:57;;;;;;;7.18;6.13;;;21.70;73.00;;;;;;5098251;28;20055;-53
2021/06/06 00:06:27;;;;;;;6.35;5.40;;;21.60;72.90;;;;;;5117188;27;20043;-52
2021/06/06 00:08:53;;;;;;;6.75;6.05;;;21.70;72.90;;;;;;5116105;28;20440;-53
2021/06/06 00:11:29;;;;;;;7.18;6.05;;;21.60;72.90;;;;;;5116151;28;20071;-52
2021/06/06 00:13:56;;;;;;;6.45;5.82;;;21.60;72.90;;;;;;5115477;28;20051;-51
2021/06/06 00:16:37;;;;;;;7.50;5.47;;;21.60;72.90;;;;;;5115883;28;20044;-55
2021/06/06 00:19:05;;;;;;;6.28;5.68;;;21.60;72.90;;;;;;5115532;28;20054;-55
2021/06/06 00:21:31;;;;;;;6.85;6.15;;;21.60;72.90;;;;;;5114715;28;20052;-52
2021/06/06 00:23:57;;;;;;;6.65;5.63;;;21.60;72.90;;;;;;5115469;28;20082;-52
2021/06/06 00:26:24;;;;;;;8.70;6.15;;;21.60;72.90;;;;;;5115691;28;20040;-52
2021/06/06 00:28:50;;;;;;;7.45;6.10;;;21.60;72.90;;;;;;5115077;28;20455;-50
2021/06/06 00:31:17;;;;;;;6.57;5.40;;;21.60;72.90;;;;;;5115305;28;20054;-52
2021/06/06 00:33:43;;;;;;;7.53;6.55;;;21.60;72.90;;;;;;5115698;28;20051;-52
2021/06/06 00:36:09;;;;;;;6.63;5.78;;;21.60;72.90;;;;;;5115397;28;20461;-52
2021/06/06 00:38:35;;;;;;;7.68;5.93;;;21.60;72.90;;;;;;5114990;28;20058;-49
2021/06/06 00:41:02;;;;;;;7.85;5.97;;;21.60;72.90;;;;;;5115773;28;20118;-51
2021/06/06 00:43:28;;;;;;;6.32;5.53;;;21.60;72.90;;;;;;5115504;28;20472;-51
2021/06/06 00:45:54;;;;;;;6.93;6.05;;;21.60;72.90;;;;;;5115147;28;20411;-51
2021/06/06 00:48:21;;;;;;;6.18;5.45;;;21.60;72.90;;;;;;5115255;28;20039;-52
2021/06/06 00:50:51;;;;;;;7.32;5.32;;;21.60;72.90;;;;;;5115266;28;20127;-52
2021/06/06 00:53:28;;;;;;;6.07;5.47;;;21.60;72.90;;;;;;5115453;28;20052;-52
2021/06/06 00:55:54;;;;;;;7.32;5.72;;;21.60;72.90;;;;;;5115384;28;20074;-51
2021/06/06 00:58:20;;;;;;;8.10;5.38;;;21.60;72.90;;;;;;5114904;28;20036;-51
2021/06/06 01:00:51;;;;;;;6.40;5.65;;;21.60;72.90;;;;;;5114933;28;20047;-52
2021/06/06 01:03:19;;;;;;;6.57;5.50;;;21.60;72.90;;;;;;5115108;28;20040;-50
2021/06/06 01:06:11;;;;;;;7.30;5.85;;;21.60;72.90;;;;;;5114935;28;20490;-51
2021/06/06 01:08:38;;;;;;;6.10;5.50;;;21.60;72.90;;;;;;5114947;28;20044;-49
2021/06/06 01:11:40;;;;;;;6.57;5.88;;;21.60;72.90;;;;;;5114874;28;20043;-52
2021/06/06 01:14:37;;;;;;;5.82;5.13;;;21.60;72.90;;;;;;5125361;27;20109;-59
2021/06/06 01:17:31;;;;;;;5.22;4.72;;;21.60;72.90;;;;;;5134947;27;20440;-55
2021/06/06 01:20:07;;;;;;;5.47;4.97;;;21.60;72.90;;;;;;5133589;27;20049;-59
2021/06/06 01:22:35;;;;;;;5.40;4.88;;;21.60;73.00;;;;;;5134403;27;20054;-52
2021/06/06 01:25:04;;;;;;;5.97;5.30;;;21.50;72.90;;;;;;5135101;27;20452;-59
2021/06/06 01:27:34;;;;;;;6.30;5.28;;;21.60;72.90;;;;;;5135481;27;20051;-52
2021/06/06 01:30:22;;;;;;;6.05;5.45;;;21.60;72.90;;;;;;5133729;27;20073;-58
2021/06/06 01:33:00;;;;;;;5.60;5.00;;;21.50;72.90;;;;;;5093309;28;20055;-57
2021/06/06 01:35:35;;;;;;;5.63;5.05;;;21.50;72.90;;;;;;5094266;28;20059;-51
2021/06/06 01:38:15;;;;;;;6.38;5.18;;;21.50;72.90;;;;;;5094166;28;20109;-52
2021/06/06 01:40:43;;;;;;;6.25;5.45;;;21.50;72.90;;;;;;5096844;27;20044;-53
2021/06/06 01:43:16;;;;;;;6.22;5.63;;;21.50;72.90;;;;;;5100088;28;20067;-52
2021/06/06 01:45:58;;;;;;;5.85;5.18;;;21.50;72.90;;;;;;5114356;28;20047;-55
2021/06/06 01:48:24;;;;;;;6.57;5.88;;;21.50;72.90;;;;;;5114007;28;20047;-52
2021/06/06 01:50:58;;;;;;;6.60;5.82;;;21.50;72.90;;;;;;5114263;28;20050;-52
2021/06/06 01:53:25;;;;;;;6.25;5.43;;;21.50;72.90;;;;;;5114647;27;20040;-52
2021/06/06 01:55:58;;;;;;;6.05;5.45;;;21.50;72.90;;;;;;5113798;28;20111;-53
2021/06/06 01:58:24;;;;;;;6.18;5.57;;;21.50;72.90;;;;;;5113757;28;20093;-59
2021/06/06 02:01:13;;;;;;;6.05;5.00;;;21.50;72.90;;;;;;5114113;28;20040;-52
2021/06/06 02:03:39;;;;;;;5.70;5.20;;;21.50;72.90;;;;;;5127790;27;20519;-52
2021/06/06 02:06:09;;;;;;;5.68;5.07;;;21.40;72.80;;;;;;5134524;27;20438;-54
2021/06/06 02:08:36;;;;;;;5.80;5.20;;;21.50;72.90;;;;;;5134240;27;20100;-51
2021/06/06 02:11:11;;;;;;;5.35;4.85;;;21.50;72.90;;;;;;5134310;27;20510;-52
2021/06/06 02:13:54;;;;;;;5.82;5.05;;;21.50;72.90;;;;;;5132447;27;20126;-53
2021/06/06 02:16:27;;;;;;;5.93;4.97;;;21.50;72.90;;;;;;5134336;27;20381;-55
2021/06/06 02:18:53;;;;;;;6.00;5.38;;;21.50;72.90;;;;;;5133827;27;20043;-54
2021/06/06 02:21:20;;;;;;;5.30;4.80;;;21.50;72.90;;;;;;5134252;27;20047;-54
2021/06/06 02:23:48;;;;;;;5.65;4.97;;;21.50;72.90;;;;;;5110483;27;20044;-54
2021/06/06 02:26:38;;;;;;;5.60;4.47;;;21.50;72.90;;;;;;5112987;28;20081;-52
2021/06/06 02:29:35;;;;;;;5.90;5.30;;;21.50;72.90;;;;;;5112769;28;20462;-53
2021/06/06 02:32:04;;;;;;;7.25;5.28;;;21.50;72.90;;;;;;5093026;28;20043;-53
2021/06/06 02:35:03;;;;;;;5.85;5.25;;;21.50;72.90;;;;;;5106850;27;20371;-52
2021/06/06 02:37:31;;;;;;;6.07;5.40;;;21.50;72.90;;;;;;5113534;28;20047;-49
2021/06/06 02:40:09;;;;;;;5.20;4.72;;;21.50;72.90;;;;;;5113710;28;20040;-53
2021/06/06 02:42:42;;;;;;;5.20;4.70;;;21.50;72.90;;;;;;5113676;28;20376;-52
2021/06/06 02:45:18;;;;;;;5.50;5.00;;;21.50;72.90;;;;;;5114068;28;20054;-51
2021/06/06 02:47:45;;;;;;;6.15;4.80;;;21.40;72.90;;;;;;5113475;28;20418;-52
2021/06/06 02:50:22;;;;;;;5.88;5.32;;;21.40;72.80;;;;;;5113125;28;20127;-52
2021/06/06 02:52:54;;;;;;;5.88;5.10;;;21.50;72.90;;;;;;5113110;28;20075;-53
2021/06/06 02:55:28;;;;;;;5.03;4.53;;;21.40;72.80;;;;;;5113032;28;20055;-50
2021/06/06 02:58:05;;;;;;;6.13;5.55;;;21.60;72.90;;;;;;5112735;28;20043;-53
2021/06/06 03:00:41;;;;;;;5.03;4.53;;;21.50;72.90;;;;;;5110666;28;20475;-57
2021/06/06 03:03:28;;;;;;;5.15;4.55;;;21.50;72.90;;;;;;5110425;28;20040;-59
2021/06/06 03:05:56;;;;;;;4.75;4.25;;;21.40;72.80;;;;;;5113690;28;20407;-52
2021/06/06 03:08:23;;;;;;;4.97;4.45;;;21.40;72.80;;;;;;5111996;28;20067;-53
2021/06/06 03:10:50;;;;;;;5.32;4.82;;;21.50;72.90;;;;;;5111949;28;20381;-52
2021/06/06 03:13:40;;;;;;;5.13;4.63;;;21.40;72.80;;;;;;5115296;28;20534;-55
2021/06/06 03:16:06;;;;;;;5.57;4.53;;;21.50;72.90;;;;;;5132582;27;20486;-52
2021/06/06 03:18:37;;;;;;;5.10;4.60;;;21.40;72.90;;;;;;5113496;27;20075;-52
2021/06/06 03:21:14;;;;;;;5.57;4.22;;;21.50;72.90;;;;;;5111533;28;20161;-52
2021/06/06 03:23:45;;;;;;;6.07;4.70;;;21.50;72.90;;;;;;5111234;28;20404;-58
2021/06/06 03:26:12;;;;;;;5.60;4.55;;;21.40;72.90;;;;;;5112633;28;20348;-56
2021/06/06 03:28:42;;;;;;;5.80;4.97;;;21.40;72.90;;;;;;5112039;28;20035;-57
2021/06/06 03:31:32;;;;;;;4.82;4.40;;;21.40;72.90;;;;;;5112442;28;20052;-57
2021/06/06 03:34:02;;;;;;;4.72;4.32;;;21.40;72.80;;;;;;5112518;28;20058;-59
2021/06/06 03:36:37;;;;;;;5.13;4.60;;;21.40;72.90;;;;;;5112435;28;20043;-58
2021/06/06 03:39:07;;;;;;;5.30;4.75;;;21.50;72.90;;;;;;5112007;28;20375;-54
2021/06/06 03:41:33;;;;;;;5.00;4.50;;;21.40;72.90;;;;;;5112530;28;20097;-51
2021/06/06 03:43:59;;;;;;;5.40;4.65;;;21.40;72.90;;;;;;5112368;28;20475;-53
2021/06/06 03:46:26;;;;;;;5.20;4.70;;;21.40;72.80;;;;;;5112368;28;20050;-58
2021/06/06 03:48:52;;;;;;;5.72;5.18;;;21.40;72.90;;;;;;5112052;28;20063;-57
2021/06/06 03:51:19;;;;;;;4.70;4.30;;;21.40;72.90;;;;;;5111932;28;20048;-54
2021/06/06 03:53:45;;;;;;;5.28;4.78;;;21.40;72.90;;;;;;5112112;28;20475;-58
2021/06/06 03:56:12;;;;;;;5.20;4.70;;;21.40;72.90;;;;;;5113020;28;20433;-59
2021/06/06 03:58:39;;;;;;;5.10;4.60;;;21.40;72.90;;;;;;5116418;28;20039;-52
2021/06/06 04:01:06;;;;;;;5.00;4.50;;;21.40;73.50;;;;;;5116099;28;20066;-53
2021/06/06 04:03:32;;;;;;;5.30;4.80;;;21.40;72.90;;;;;;5116262;28;20040;-53
2021/06/06 04:05:58;;;;;;;5.53;4.93;;;21.40;72.90;;;;;;5114952;28;20047;-53
2021/06/06 04:08:24;;;;;;;5.28;4.78;;;21.40;72.90;;;;;;5115661;28;20462;-52
2021/06/06 04:10:50;;;;;;;5.70;4.95;;;21.40;72.80;;;;;;5115934;28;20055;-53
2021/06/06 04:13:17;;;;;;;5.15;4.65;;;21.40;72.90;;;;;;5117496;27;20135;-51
2021/06/06 04:15:43;;;;;;;5.13;4.63;;;21.40;72.90;;;;;;5136361;27;20047;-52
2021/06/06 04:18:14;;;;;;;4.80;4.30;;;21.40;72.80;;;;;;5136590;27;20379;-52
2021/06/06 04:20:40;;;;;;;5.78;5.18;;;21.40;72.90;;;;;;5136013;27;20035;-52
2021/06/06 04:23:06;;;;;;;4.63;4.13;;;21.40;72.80;;;;;;5135842;27;20050;-52
2021/06/06 04:25:32;;;;;;;5.75;4.95;;;21.40;72.80;;;;;;5136396;27;20039;-52
2021/06/06 04:27:58;;;;;;;4.72;4.32;;;21.40;72.80;;;;;;5136366;27;20047;-51
2021/06/06 04:30:24;;;;;;;4.70;4.30;;;21.40;72.80;;;;;;5136578;27;20088;-50
2021/06/06 04:32:51;;;;;;;5.07;4.55;;;21.40;72.80;;;;;;5135817;27;20474;-49
2021/06/06 04:35:17;;;;;;;5.15;4.50;;;21.40;72.80;;;;;;5135828;27;20047;-50
2021/06/06 04:37:43;;;;;;;5.10;4.60;;;21.40;72.80;;;;;;5135919;27;20054;-52
2021/06/06 04:40:11;;;;;;;5.20;4.70;;;21.40;72.80;;;;;;5136090;27;20058;-52
2021/06/06 04:42:37;;;;;;;5.53;4.97;;;21.40;72.80;;;;;;5135698;27;20042;-53
2021/06/06 04:45:05;;;;;;;4.97;4.47;;;21.40;72.80;;;;;;5136038;27;20487;-51
2021/06/06 04:47:31;;;;;;;5.18;4.60;;;21.40;72.80;;;;;;5136347;27;20043;-52
2021/06/06 04:49:57;;;;;;;5.45;4.88;;;21.40;72.80;;;;;;5136281;27;20158;-51
2021/06/06 04:52:23;;;;;;;5.72;4.68;;;21.40;72.80;;;;;;5135795;27;20043;-52
2021/06/06 04:54:49;;;;;;;5.00;4.50;;;21.40;72.80;;;;;;5135178;27;20380;-51
2021/06/06 04:57:15;;;;;;;5.07;4.57;;;21.40;72.80;;;;;;5117277;27;20046;-51
2021/06/06 04:59:41;;;;;;;4.70;4.20;;;21.40;72.80;;;;;;5135885;27;20542;-51
2021/06/06 05:02:10;;;;;;;5.03;4.57;;;21.40;72.80;;;;;;5135032;27;20502;-51
2021/06/06 05:04:36;;;;;;;5.75;5.15;;;21.40;72.80;;;;;;5135651;27;20047;-51
2021/06/06 05:07:03;;;;;;;5.68;5.10;;;21.40;72.80;;;;;;5135413;27;20047;-52
2021/06/06 05:09:29;;;;;;;5.20;4.65;;;21.40;72.80;;;;;;5134033;27;20047;-51
2021/06/06 05:11:55;;;;;;;5.15;4.65;;;21.40;72.80;;;;;;5135294;27;20047;-52
2021/06/06 05:14:21;;;;;;;6.00;4.97;;;21.40;72.80;;;;;;5133706;27;20122;-52
2021/06/06 05:16:47;;;;;;;5.13;4.55;;;21.40;72.80;;;;;;5135670;27;20066;-51
2021/06/06 05:19:13;;;;;;;5.53;4.50;;;21.40;72.80;;;;;;5135415;27;20099;-51
2021/06/06 05:21:39;;;;;;;4.93;4.18;;;21.30;72.80;;;;;;5135354;27;20035;-53
2021/06/06 05:24:06;;;;;;;5.25;4.75;;;21.30;72.80;;;;;;5134993;27;20070;-51
2021/06/06 05:26:33;;;;;;;5.32;4.82;;;21.30;72.70;;;;;;5133197;27;20431;-51
2021/06/06 05:28:59;;;;;;;4.85;4.35;;;21.30;72.80;;;;;;5135083;27;20444;-56
2021/06/06 05:31:24;;;;;;;5.13;4.63;;;21.30;73.40;;;;;;5135304;27;20066;-58
2021/06/06 05:33:51;;;;;;;4.57;4.18;;;21.40;72.80;;;;;;5134959;27;20414;-59
2021/06/06 05:36:16;;;;;;;5.07;4.50;;;21.40;72.80;;;;;;5133141;27;20043;-56
2021/06/06 05:38:42;;;;;;;5.22;4.68;;;21.30;72.80;;;;;;5133988;27;20047;-57
2021/06/06 05:41:09;;;;;;;5.00;4.50;;;21.30;72.80;;;;;;5134311;27;20149;-49
2021/06/06 05:43:36;;;;;;;5.00;4.53;;;21.30;72.80;;;;;;5134993;27;20054;-51
2021/06/06 05:46:02;;;;;;;5.35;4.85;;;21.40;72.80;;;;;;5114167;27;20101;-58
2021/06/06 05:48:28;;;;;;;5.55;4.45;;;21.30;72.80;;;;;;5125971;27;20131;-57
2021/06/06 05:50:58;;;;;;;4.88;4.00;;;21.30;72.80;;;;;;5114022;28;20122;-58
2021/06/06 05:53:24;;;;;;;5.30;4.53;;;21.30;72.80;;;;;;5113782;28;20084;-54
2021/06/06 05:55:51;;;;;;;5.30;4.80;;;21.30;72.80;;;;;;5113854;28;20044;-52
2021/06/06 05:58:17;;;;;;;5.32;4.65;;;21.30;72.80;;;;;;5114874;27;20044;-58
2021/06/06 06:00:45;;;;;;;4.97;4.47;;;21.30;72.80;;;;;;5113818;27;20043;-53
2021/06/06 06:03:12;;;;;;;6.47;4.80;;;21.30;72.80;;;;;;5113656;28;20040;-54
2021/06/06 06:05:38;;;;;;;5.10;4.60;;;21.30;72.80;;;;;;5113642;28;20380;-56
2021/06/06 06:08:24;;;;;;;5.30;4.80;;;21.30;72.80;;;;;;5114703;27;20096;-48
2021/06/06 06:10:51;;;;;;;5.20;4.57;;;21.30;72.80;;;;;;5113597;28;20079;-54
2021/06/06 06:13:19;;;;;;;4.90;4.40;;;21.30;72.80;;;;;;5113242;28;20044;-58
2021/06/06 06:15:45;;;;;;;5.85;4.90;;;21.30;72.80;;;;;;5113241;28;20510;-53
2021/06/06 06:18:12;;;;;;;5.63;4.82;;;21.30;72.80;;;;;;5111592;28;20047;-57
2021/06/06 06:20:38;;;;;;;4.80;4.30;;;21.30;72.80;;;;;;5107244;28;20067;-56
2021/06/06 06:23:04;;;;;;;4.90;4.40;;;21.30;72.80;;;;;;5113656;28;20039;-52
2021/06/06 06:25:31;;;;;;;5.82;4.88;;;21.30;72.80;;;;;;5113404;28;20044;-54
2021/06/06 06:27:56;;;;;;;4.72;4.22;;;21.30;72.80;;;;;;5113271;28;20058;-51
2021/06/06 06:30:26;;;;;;;5.15;4.47;;;21.30;72.80;;;;;;5113517;28;20202;-52
2021/06/06 06:32:52;;;;;;;5.65;4.78;;;21.30;72.80;;;;;;5112672;28;20483;-52
2021/06/06 06:35:19;;;;;;;5.45;4.55;;;21.30;72.80;;;;;;5112618;28;20047;-49
2021/06/06 06:37:45;;;;;;;6.07;4.57;;;21.30;72.80;;;;;;5112666;28;20043;-49
2021/06/06 06:40:13;;;;;;;5.63;4.68;;;21.30;72.80;;;;;;5112565;28;20047;-50
2021/06/06 06:42:40;;;;;;;5.47;4.97;;;21.30;72.80;;;;;;5112803;28;20079;-51
2021/06/06 06:45:08;;;;;;;4.93;4.40;;;21.30;72.80;;;;;;5112993;28;20078;-56
2021/06/06 06:47:34;;;;;;;5.03;4.38;;;21.30;72.80;;;;;;5113665;28;20073;-53
2021/06/06 06:50:00;;;;;;;4.97;4.47;;;21.30;72.80;;;;;;5113069;28;20370;-55
2021/06/06 06:52:26;;;;;;;4.90;4.40;;;21.30;72.80;;;;;;5113084;28;20055;-58
2021/06/06 06:54:52;;;;;;;5.15;4.65;;;21.30;72.80;;;;;;5113163;28;20495;-51
2021/06/06 06:57:19;;;;;;;5.32;4.82;;;21.30;73.50;;;;;;5113251;28;20392;-48
2021/06/06 06:59:45;;;;;;;5.22;4.72;;;21.30;72.80;;;;;;5112877;28;20065;-58
2021/06/06 07:02:10;;;;;;;5.43;4.60;;;21.30;72.80;;;;;;5113391;28;20134;-55
2021/06/06 07:04:36;;;;;;;5.18;4.68;;;21.30;72.80;;;;;;5113188;28;20407;-49
2021/06/06 07:07:03;;;;;;;5.05;4.55;;;21.30;72.80;;;;;;5112928;28;20040;-50
2021/06/06 07:09:29;;;;;;;5.75;4.60;;;21.30;72.80;;;;;;5113286;28;20039;-53
2021/06/06 07:11:56;;;;;;;5.50;4.68;;;21.30;72.80;;;;;;5112951;28;20471;-53
2021/06/06 07:14:22;;;;;;;5.15;4.65;;;21.30;72.80;;;;;;5121076;28;20051;-52
2021/06/06 07:16:48;;;;;;;5.78;4.25;;;21.30;72.80;;;;;;5133505;28;20043;-58
2021/06/06 07:19:14;;;;;;;4.35;3.95;;;21.30;72.80;;;;;;5133293;28;20061;-51
2021/06/06 07:21:40;;;;;;;5.82;4.82;;;21.30;72.80;;;;;;5118059;28;20039;-54
2021/06/06 07:24:07;;;;;;;5.30;4.80;;;21.30;72.80;;;;;;5089271;28;20047;-56
2021/06/06 07:26:46;;;;;;;5.63;4.40;;;21.30;72.80;;;;;;5111877;28;20046;-58
2021/06/06 07:29:33;;;;;;;5.75;4.72;;;21.30;72.80;;;;;;5092877;28;20039;-58
2021/06/06 07:32:00;;;;;;;6.43;5.32;;;21.30;72.80;;;;;;5112080;28;20044;-53
2021/06/06 07:34:28;;;;;;;5.38;4.85;;;21.30;72.80;;;;;;5110948;28;20100;-53
2021/06/06 07:36:58;;;;;;;5.30;4.75;;;21.30;72.80;;;;;;5114639;28;20093;-50
2021/06/06 07:39:36;;;;;;;7.30;5.25;;;21.30;72.80;;;;;;5112899;28;20051;-56
2021/06/06 07:42:03;;;;;;;6.38;4.95;;;21.30;72.80;;;;;;5089565;28;20146;-58
2021/06/06 07:44:29;;;;;;;5.35;4.85;;;21.30;72.80;;;;;;5106861;28;21223;-57
2021/06/06 07:46:55;;;;;;;5.70;5.10;;;21.30;72.80;;;;;;5103264;27;20043;-54
2021/06/06 07:49:22;;;;;;;5.60;5.00;;;21.30;72.80;;;;;;5091541;28;20096;-55
2021/06/06 07:51:48;;;;;;;5.43;4.85;;;21.30;72.80;;;;;;5096252;28;20058;-58
2021/06/06 07:54:13;;;;;;;6.15;5.13;;;21.20;72.70;;;;;;5114591;28;20044;-54
2021/06/06 07:56:40;;;;;;;5.95;4.68;;;21.30;72.80;;;;;;5115226;28;20048;-56
2021/06/06 07:59:08;;;;;;;5.32;4.70;;;21.30;72.80;;;;;;5115349;28;20142;-55
2021/06/06 08:01:35;;;;;;;6.72;4.70;;;21.20;72.70;;;;;;5114090;28;20145;-56
2021/06/06 08:04:00;;;;;;;5.00;4.22;;;21.30;72.80;;;;;;5115707;28;20047;-57
2021/06/06 08:06:26;;;;;;;5.10;4.60;;;21.30;72.80;;;;;;5115386;28;20051;-54
2021/06/06 08:08:53;;;;;;;5.60;5.10;;;21.30;72.80;;;;;;5113766;28;20050;-56
2021/06/06 08:11:20;;;;;;;5.07;4.55;;;21.30;72.80;;;;;;5114711;28;20451;-60
2021/06/06 08:13:46;;;;;;;13.77;11.13;;;21.20;72.80;;;;;;5117848;27;20051;-50
2021/06/06 08:16:12;;;;;;;18.58;10.77;;;21.20;72.20;;;;;;5133575;27;20466;-48
2021/06/06 08:18:43;;;;;;;14.77;9.63;;;21.10;72.40;;;;;;5135009;27;20051;-49
2021/06/06 08:21:16;;;;;;;12.38;8.80;;;21.00;72.40;;;;;;5135385;27;20066;-52
2021/06/06 08:23:43;;;;;;;12.40;8.82;;;21.00;72.40;;;;;;5133397;27;20047;-53
2021/06/06 08:26:11;;;;;;;11.00;8.57;;;21.00;72.50;;;;;;5135701;27;20039;-53
2021/06/06 08:28:37;;;;;;;11.57;9.15;;;21.10;72.60;;;;;;5135205;27;20039;-48
2021/06/06 08:31:13;;;;;;;11.68;9.02;;;21.00;72.50;;;;;;5133602;27;20054;-50
2021/06/06 08:33:39;;;;;;;12.60;8.80;;;21.10;72.60;;;;;;5134763;27;20490;-46
2021/06/06 08:36:10;;;;;;;12.90;9.32;;;21.10;72.60;;;;;;5134962;27;20131;-51
2021/06/06 08:38:36;;;;;;;11.35;8.77;;;21.10;72.60;;;;;;5133939;27;20102;-46
2021/06/06 08:41:08;;;;;;;11.90;8.25;;;21.10;72.60;;;;;;5134265;27;20473;-48
2021/06/06 08:43:49;;;;;;;11.73;8.32;;;21.10;72.60;;;;;;5133024;27;20059;-49
2021/06/06 08:46:17;;;;;;;9.98;7.93;;;21.10;72.70;;;;;;5133570;27;20046;-48
2021/06/06 08:48:44;;;;;;;18.95;11.70;;;21.10;72.70;;;;;;5134655;27;20206;-51
2021/06/06 08:51:28;;;;;;;16.75;10.23;;;21.10;72.10;;;;;;5134302;27;20047;-52
2021/06/06 08:54:27;;;;;;;15.73;10.05;;;20.90;72.10;;;;;;5132824;27;20506;-50
2021/06/06 08:56:58;;;;;;;17.92;9.45;;;20.90;72.30;;;;;;5133342;27;20146;-52
2021/06/06 08:59:32;;;;;;;17.02;10.63;;;20.90;72.50;;;;;;5134145;27;20043;-50
2021/06/06 09:02:25;;;;;;;16.95;9.57;;;20.90;72.50;;;;;;5135172;27;20051;-53
2021/06/06 09:04:52;;;;;;;13.25;8.73;;;20.90;72.60;;;;;;5029158;28;20501;-47
2021/06/06 09:07:29;;;;;;;12.98;8.70;;;20.90;72.70;;;;;;5038602;28;20195;-50
2021/06/06 09:10:01;;;;;;;16.48;8.88;;;20.90;72.80;;;;;;5041943;28;20131;-49
2021/06/06 09:12:27;;;;;;;13.85;8.50;;;20.90;72.80;;;;;;5040736;28;20049;-47
2021/06/06 09:14:55;;;;;;;12.32;8.75;;;20.90;72.90;;;;;;5032576;28;20386;-52
2021/06/06 09:17:35;;;;;;;11.02;7.93;;;20.90;72.90;;;;;;5051238;28;20568;-52
2021/06/06 09:20:07;;;;;;;11.35;8.77;;;20.90;72.90;;;;;;5047993;28;20108;-49
2021/06/06 09:22:37;;;;;;;12.63;7.88;;;20.90;73.00;;;;;;5040270;28;20493;-47
2021/06/06 09:25:17;;;;;;;11.48;7.68;;;20.90;73.00;;;;;;5041238;28;20076;-46
2021/06/06 09:27:44;;;;;;;12.65;8.15;;;21.00;73.10;;;;;;5034964;28;20121;-47
2021/06/06 09:30:21;;;;;;;12.27;8.20;;;21.00;73.10;;;;;;5038433;28;20136;-54
2021/06/06 09:32:47;;;;;;;14.10;8.45;;;21.00;73.10;;;;;;5039497;28;20048;-51
2021/06/06 09:35:30;;;;;;;10.38;7.53;;;21.00;73.10;;;;;;5036865;28;20145;-53
2021/06/06 09:38:11;;;;;;;10.07;7.00;;;21.00;73.10;;;;;;5048892;28;20083;-53
2021/06/06 09:40:41;;;;;;;13.88;7.88;;;21.00;73.10;;;;;;5041741;27;20049;-56
2021/06/06 09:43:10;;;;;;;11.02;7.50;;;21.00;73.10;;;;;;5128772;27;20039;-54
2021/06/06 09:45:39;;;;;;;11.43;7.15;;;21.00;73.10;;;;;;5129947;27;20058;-47
2021/06/06 09:48:07;;;;;;;9.27;7.20;;;21.00;73.20;;;;;;5130525;27;20111;-49
2021/06/06 09:50:43;;;;;;;8.80;6.72;;;21.00;73.20;;;;;;5128911;27;20045;-56
2021/06/06 09:53:30;;;;;;;9.15;6.80;;;21.00;73.20;;;;;;5127341;27;20050;-55
2021/06/06 09:56:14;;;;;;;8.90;6.72;;;21.00;73.10;;;;;;5128727;27;20162;-49
2021/06/06 09:58:41;;;;;;;9.13;6.43;;;21.00;73.20;;;;;;5130740;27;20122;-49
2021/06/06 10:01:19;;;;;;;7.45;6.50;;;21.00;73.20;;;;;;5129950;27;20035;-55
2021/06/06 10:04:00;;;;;;;8.38;6.43;;;21.00;73.20;;;;;;5130577;27;20798;-50
2021/06/06 10:06:33;;;;;;;7.50;6.15;;;21.00;73.20;;;;;;5130177;27;20162;-51
2021/06/06 10:09:00;;;;;;;9.15;6.63;;;21.00;73.20;;;;;;5130162;27;20057;-52
2021/06/06 10:11:55;;;;;;;8.82;6.32;;;21.00;73.20;;;;;;5130180;27;20415;-50
2021/06/06 10:14:41;;;;;;;7.60;5.65;;;21.00;73.20;;;;;;5039634;28;20060;-54
2021/06/06 10:17:10;;;;;;;7.63;5.63;;;21.00;73.20;;;;;;5026507;28;20861;-55
2021/06/06 10:19:53;;;;;;;8.35;6.00;;;21.00;73.20;;;;;;5025930;28;20046;-59
2021/06/06 10:22:27;;;;;;;6.53;5.32;;;21.00;73.20;;;;;;5025383;28;20052;-56
2021/06/06 10:25:00;;;;;;;6.72;5.63;;;21.00;73.20;;;;;;5025473;28;20457;-53
2021/06/06 10:27:32;;;;;;;8.85;6.15;;;21.00;73.20;;;;;;5025964;28;20415;-54
2021/06/06 10:30:10;;;;;;;6.95;5.22;;;21.00;73.10;;;;;;5025974;28;20492;-59
2021/06/06 10:32:45;;;;;;;6.20;5.20;;;21.00;73.20;;;;;;5024530;28;20091;-54
2021/06/06 10:35:13;;;;;;;7.07;5.55;;;21.00;73.20;;;;;;5025449;28;20045;-57
2021/06/06 10:37:44;;;;;;;7.00;5.25;;;21.00;73.10;;;;;;5025788;28;20163;-55
2021/06/06 10:40:25;;;;;;;7.22;5.45;;;21.00;73.10;;;;;;5025905;28;20102;-52
2021/06/06 10:43:04;;;;;;;6.50;5.57;;;21.00;73.10;;;;;;5025954;28;20053;-56
2021/06/06 10:46:10;;;;;;;7.07;5.55;;;21.00;73.10;;;;;;5026012;28;20056;-54
2021/06/06 10:49:19;;;;;;;6.57;5.53;;;21.10;73.20;;;;;;5006779;28;20049;-59
2021/06/06 10:51:53;;;;;;;5.47;4.88;;;21.10;73.20;;;;;;5025890;28;20065;-60
2021/06/06 10:54:21;;;;;;;5.75;5.15;;;21.00;73.10;;;;;;5047511;28;20120;-51
2021/06/06 10:56:47;;;;;;;6.20;4.93;;;21.10;73.20;;;;;;5051313;28;20402;-60
2021/06/06 10:59:13;;;;;;;5.75;5.00;;;21.10;73.10;;;;;;5051088;28;20059;-55
2021/06/06 11:01:49;;;;;;;5.45;4.72;;;21.00;73.10;;;;;;5065003;28;20056;-51
2021/06/06 11:04:27;;;;;;;5.47;4.97;;;21.10;73.10;;;;;;5063532;28;20191;-58
2021/06/06 11:07:22;;;;;;;6.55;5.03;;;21.10;73.10;;;;;;5060053;28;20520;-59
2021/06/06 11:10:20;;;;;;;4.97;4.40;;;21.10;73.10;;;;;;5067218;28;20049;-64
2021/06/06 11:12:52;;;;;;;6.88;5.00;;;21.10;73.10;;;;;;5059644;28;20161;-65
2021/06/06 11:15:30;;;;;;;5.50;4.90;;;21.00;73.00;;;;;;5059269;28;20051;-64
2021/06/06 11:18:07;;;;;;;4.68;4.00;;;21.10;73.10;;;;;;5059698;28;20066;-62
2021/06/06 11:20:47;;;;;;;5.75;4.75;;;21.10;73.10;;;;;;5069490;28;20091;-65
2021/06/06 11:23:17;;;;;;;5.20;4.40;;;21.10;73.10;;;;;;5057052;28;20049;-65
2021/06/06 11:25:48;;;;;;;5.65;4.75;;;21.00;73.00;;;;;;5059937;28;20041;-58
2021/06/06 11:28:28;;;;;;;5.45;4.55;;;21.10;73.10;;;;;;5066820;28;20044;-64
2021/06/06 11:30:55;;;;;;;5.72;4.68;;;21.10;73.10;;;;;;5082466;28;20558;-58
2021/06/06 11:33:43;;;;;;;5.68;4.28;;;21.10;73.10;;;;;;5073722;28;20044;-64
2021/06/06 11:36:10;;;;;;;4.40;4.00;;;21.10;73.00;;;;;;5084945;28;20055;-54
2021/06/06 11:38:42;;;;;;;5.28;4.57;;;21.00;72.90;;;;;;5073604;28;20088;-51
2021/06/06 11:41:13;;;;;;;5.03;4.50;;;21.10;73.00;;;;;;5069959;28;20105;-50
2021/06/06 11:43:53;;;;;;;4.38;3.95;;;21.10;73.00;;;;;;5070076;28;20044;-50
2021/06/06 11:46:37;;;;;;;4.97;4.05;;;21.10;73.00;;;;;;5072316;28;20037;-50
2021/06/06 11:49:40;;;;;;;4.80;3.90;;;21.10;73.00;;;;;;5113194;28;20053;-50
2021/06/06 11:52:28;;;;;;;5.40;4.40;;;21.00;72.90;;;;;;5133016;28;20479;-48
2021/06/06 11:54:58;;;;;;;4.18;3.70;;;21.10;73.00;;;;;;5132186;28;20039;-49
2021/06/06 11:57:29;;;;;;;4.22;3.83;;;21.10;73.00;;;;;;5132556;28;20483;-48
2021/06/06 11:59:58;;;;;;;4.45;3.97;;;21.10;73.00;;;;;;5132873;28;20054;-50
2021/06/06 12:02:32;;;;;;;4.95;3.88;;;21.10;73.00;;;;;;5132062;28;20064;-51
2021/06/06 12:05:10;;;;;;;4.50;3.90;;;21.10;73.00;;;;;;5132934;28;20050;-48
2021/06/06 12:07:36;;;;;;;4.90;4.40;;;21.10;72.90;;;;;;5132550;28;20042;-47
2021/06/06 12:10:03;;;;;;;4.97;4.15;;;21.10;73.00;;;;;;5132729;28;20043;-49
2021/06/06 12:12:31;;;;;;;4.88;3.65;;;21.10;73.00;;;;;;5132684;28;20044;-51
2021/06/06 12:15:20;;;;;;;5.22;3.97;;;21.10;72.90;;;;;;5132542;28;20043;-52
2021/06/06 12:17:46;;;;;;;4.00;3.60;;;21.10;72.90;;;;;;5134255;27;20483;-58
2021/06/06 12:20:17;;;;;;;5.15;3.60;;;21.10;72.90;;;;;;5136212;27;20043;-51
2021/06/06 12:22:43;;;;;;;4.65;3.80;;;21.10;72.90;;;;;;5136195;27;20042;-50
2021/06/06 12:25:11;;;;;;;4.80;4.18;;;21.10;72.90;;;;;;5117167;27;20502;-49
2021/06/06 12:27:50;;;;;;;4.40;3.63;;;21.10;72.90;;;;;;5135886;27;20095;-50
2021/06/06 12:30:21;;;;;;;5.20;3.53;;;21.10;72.90;;;;;;5135488;27;20513;-47
2021/06/06 12:33:00;;;;;;;5.47;3.63;;;21.10;72.90;;;;;;5135786;27;20176;-51
2021/06/06 12:35:31;;;;;;;4.53;3.70;;;21.10;72.90;;;;;;5135822;27;20039;-47
2021/06/06 12:38:00;;;;;;;5.00;3.45;;;21.10;72.90;;;;;;5135647;27;20070;-59
2021/06/06 12:40:28;;;;;;;4.43;4.03;;;21.10;72.90;;;;;;5135290;27;20062;-48
2021/06/06 12:42:57;;;;;;;5.10;3.67;;;21.10;72.90;;;;;;5135746;27;20035;-52
2021/06/06 12:45:24;;;;;;;4.20;3.80;;;21.10;72.90;;;;;;5135744;27;20050;-49
2021/06/06 12:48:01;;;;;;;4.35;3.95;;;21.10;72.90;;;;;;5135850;27;20048;-54
2021/06/06 12:50:29;;;;;;;4.93;3.97;;;21.10;72.90;;;;;;5135593;27;20055;-46
2021/06/06 12:53:01;;;;;;;4.43;3.80;;;21.10;72.90;;;;;;5135123;27;20039;-54
2021/06/06 12:55:38;;;;;;;3.97;3.55;;;21.10;72.90;;;;;;5134909;27;20054;-48
2021/06/06 12:58:07;;;;;;;4.97;3.47;;;21.10;72.90;;;;;;5135658;27;20422;-55
2021/06/06 13:00:32;;;;;;;3.97;3.58;;;21.10;72.90;;;;;;5135183;27;20051;-52
2021/06/06 13:03:00;;;;;;;4.07;3.67;;;21.10;72.80;;;;;;5133797;27;20380;-53
2021/06/06 13:05:41;;;;;;;3.88;3.50;;;21.00;73.40;;;;;;5135638;27;20043;-64
2021/06/06 13:08:25;;;;;;;4.65;3.55;;;21.10;72.80;;;;;;5135033;27;20479;-58